x

Huron Light, Oh (hhlo1) Weather Station

2:00pm - Mon 29th Aug 2016 All times are CDT. -5 hours from GMT.

  • Wind
    13mph, 15mph gusts
  • Air Temp 76°f
  • Sea Pressure 1024mb
  • Huron Light, Oh
  • Huron Light, Oh

More Historic Weather Station data

Upgrade to MSW Pro to gain access to the past 30 days of data for over 8000 Wavebouys and Weather Stations around the globe.

Join Pro

Comparision Forecast

View Surf forecast
   
Mon 08/29 2:00pm 13 15 mph 1024mb 76f
1:50pm 13 15 mph 1024mb 76f
1:40pm 13 16 mph 1024mb 76f
1:30pm 14 17 mph 1024mb 76f
1:20pm 15 17 mph 1024mb 76f
1:10pm 16 17 mph 1024.4mb 76f
1:00pm 16 18 mph 1024mb 76f
12:50pm 15 20 mph 1024mb 76f
12:40pm 17 18 mph 1024.4mb 76f
12:30pm 17 20 mph 1024.4mb 76f
12:20pm 16 18 mph 1024.4mb 76f
12:10pm 17 18 mph 1024.4mb 76f
12:00pm 18 20 mph 1024.4mb 76f
11:50am 16 18 mph 1024.4mb 76f
11:40am 17 18 mph 1024.4mb 76f
11:30am 17 18 mph 1024.4mb 76f
11:20am 17 20 mph 1024.4mb 76f
11:10am 17 20 mph 1024.4mb 76f
11:00am 17 21 mph 1024.4mb 76f
10:50am 17 20 mph 1024.4mb 76f
10:40am 18 21 mph 1024.4mb 76f
10:30am 18 22 mph 1024.4mb 76f
10:20am 17 21 mph 1024.4mb 76f
10:10am 17 21 mph 1024.4mb 76f
10:00am 18 21 mph 1024mb 76f
9:50am 20 22 mph 1024mb 76f
9:40am 18 22 mph 1024mb 76f
9:30am 18 21 mph 1024mb 76f
9:20am 18 22 mph 1024mb 76f
9:10am 18 21 mph 1024mb 76f
9:00am 20 23 mph 1024mb 76f
8:50am 18 22 mph 1024mb 76f
8:40am 20 22 mph 1024mb 76f
8:30am 20 22 mph 1024mb 76f
8:20am 18 22 mph 1024mb 76f
8:10am 18 23 mph 1024mb 76f
8:00am 18 21 mph 1023.7mb 76f
7:50am 20 22 mph 1023.7mb 77f
7:40am 18 21 mph 1023.7mb 77f
7:30am 20 21 mph 1023.4mb 77f
7:20am 16 21 mph 1023.4mb 77f
7:10am 17 20 mph 1023.4mb 77f
7:00am 17 20 mph 1023.4mb 77f
6:50am 17 20 mph 1023mb 77f
6:40am 15 18 mph 1023mb 77f
6:30am 16 20 mph 1023mb 77f
6:20am 17 20 mph 1023mb 77f
6:10am 16 18 mph 1022.7mb 77f
6:00am 17 18 mph 1022.7mb 77f
5:50am 16 20 mph 1022.7mb 77f
5:40am 15 18 mph 1022.4mb 77f
5:30am 16 18 mph 1022.4mb 77f
5:20am 8 9 mph 1022.4mb 76f
5:10am 6 8 mph 1022.4mb 76f
5:00am 6 8 mph 1022.4mb 75f
4:50am 5 9 mph 1022.4mb 75f
4:40am 6 8 mph 1022.4mb 75f
4:30am 6 8 mph 1022mb 76f
4:20am 7 16 mph 1022mb 76f
4:10am 15 17 mph 1022mb 77f
4:00am 14 16 mph 1022mb 77f
3:50am 14 15 mph 1022mb 77f
3:40am 13 14 mph 1022mb 77f
3:30am 10 13 mph 1022mb 77f
3:20am 11 14 mph 1022mb 77f
3:10am 13 14 mph 1022mb 76f
3:00am 13 16 mph 1021.7mb 76f
2:50am 14 15 mph 1021.7mb 76f
2:40am 3 5 mph 1022mb 73f
2:30am 1 5 mph 1022mb 72f
2:20am 5
mph
1022mb 73f
2:10am 5
mph
1022mb 73f
2:00am 3 5 mph 1022mb 73f
1:50am 5
mph
1022.4mb 73f
1:40am 2 3 mph 1022.4mb 73f
1:30am 3 5 mph 1022.4mb 73f
1:20am  -  mph 1022.4mb 73f
1:10am  -  mph 1022mb 73f
1:00am  -  2 mph 1022mb 73f
12:50am 2
mph
1022mb 73f
12:40am 2
mph
1022.4mb 73f
12:30am 2 3 mph 1022mb 74f
12:20am 1 2 mph 1022mb 73f
12:10am  -  1 mph 1022.4mb 73f
12:00am  -  2 mph 1022.4mb 73f
Sun 08/28 11:50pm  -  2 mph 1022.4mb 73f
11:40pm  -  1 mph 1022.4mb 73f
11:30pm 1 2 mph 1022.4mb 73f
11:20pm 1 2 mph 1022.4mb 74f
11:10pm 1 3 mph 1022.4mb 74f
11:00pm  -  2 mph 1022mb 74f
10:50pm 1 3 mph 1022mb 74f
10:40pm 3 7 mph 1022mb 74f
10:30pm 3 7 mph 1022mb 74f
10:20pm 5 6 mph 1022mb 74f
10:10pm 3
mph
1022mb 74f
10:00pm 3 5 mph 1022mb 74f
9:50pm 3 7 mph 1022mb 75f
9:40pm 2 6 mph 1021.7mb 74f
9:30pm 5 6 mph 1021.7mb 75f
9:20pm  -  2 mph 1021.3mb 75f
9:10pm 2
mph
1021.3mb 75f
9:00pm 2 3 mph 1021.3mb 75f
8:50pm 3
mph
1021.3mb 75f
8:40pm 1 2 mph 1021.3mb 75f
8:30pm 2
mph
1021.3mb 75f
8:20pm 2 3 mph 1021.3mb 75f
8:10pm 3 5 mph 1021mb 75f
8:00pm 3 5 mph 1021.3mb 75f
7:50pm 3 5 mph 1021.3mb 76f
7:40pm 3 5 mph 1021.3mb 76f
7:30pm 3 5 mph 1021.3mb 77f
7:20pm  -  1 mph 1021.3mb 77f
7:10pm  -  1 mph 1021.3mb 78f
7:00pm  -  2 mph 1021.3mb 78f
6:50pm 2 3 mph 1021mb 78f
6:40pm 2 3 mph 1021mb 78f
6:30pm 2 5 mph 1020.7mb 78f
6:20pm 5 7 mph 1020.3mb 78f
6:10pm 5 6 mph 1020.3mb 79f
6:00pm 3
mph
1020.3mb 79f
5:50pm 2 3 mph 1020.7mb 80f
5:40pm 1 6 mph 1020.7mb 79f
5:30pm 5 6 mph 1020.7mb 79f
5:20pm 3 7 mph 1020.7mb 79f
5:10pm 5 7 mph 1020.3mb 77f
5:00pm 6 7 mph 1020.7mb 78f
4:50pm 3 5 mph 1020.7mb 78f
4:40pm 5 10 mph 1020.3mb 76f
4:30pm 3 9 mph 1020.3mb 75f
4:20pm 7 10 mph 1020.3mb 74f
4:10pm 7 17 mph 1020.3mb 72f
4:00pm 17 21 mph 1021mb 72f
3:50pm 15 23 mph 1020.3mb 70f
3:40pm 18 34 mph 1020.7mb 68f
3:30pm 22 59 mph 1022mb 68f
3:20pm 36 48 mph 1020.7mb 75f
3:10pm 13 14 mph 1021mb 81f
3:00pm 10 13 mph 1021.3mb 81f
2:50pm 9 10 mph 1021.3mb 81f
2:40pm 9 11 mph 1021.3mb 81f
2:30pm 9 11 mph 1021.7mb 81f
2:20pm 10 11 mph 1022mb 81f
2:10pm 8
mph
1021.7mb 81f
2:00pm 6
mph
1021.7mb 83f
1:50pm 3 5 mph 1021.7mb 82f
1:40pm 5 6 mph 1021.7mb 82f
1:30pm 6 7 mph 1021.7mb 81f
1:20pm 7
mph
1021.7mb 81f
1:10pm 5 7 mph 1021.7mb 81f
1:00pm 7
mph
1021.7mb 81f
12:50pm 5 6 mph 1022mb 81f
12:40pm 6 7 mph 1022mb 81f
12:30pm 5 7 mph 1022mb 81f
12:20pm 6 7 mph 1022.4mb 81f
12:10pm 6 7 mph 1022.4mb 81f
12:00pm 6 7 mph 1022.4mb 80f
11:50am 5 6 mph 1022.4mb 80f
11:40am 5 6 mph 1022.4mb 80f
11:30am 5 6 mph 1022.4mb 80f
11:20am 5 6 mph 1022.4mb 80f
11:10am 6 7 mph 1022.4mb 80f
11:00am 6
mph
1022.4mb 80f
10:50am 6
mph
1022.4mb 80f
10:40am 3 6 mph 1022.4mb 83f
10:30am 2 3 mph 1022.4mb 83f
10:20am 3 6 mph 1022.4mb 82f
10:10am 3 5 mph 1022.4mb 85f
10:00am 1 3 mph 1022.4mb 82f
9:50am 2 3 mph 1022.4mb 83f
9:40am 2 5 mph 1022.4mb 81f
9:30am 2 3 mph 1022.4mb 83f
9:20am 2 5 mph 1022mb 80f
9:10am 3 6 mph 1022mb 80f
9:00am 5 6 mph 1022mb 81f
8:50am 3 6 mph 1022mb 80f
8:40am 3 6 mph 1022mb 79f
8:30am 5 7 mph 1021.7mb 78f
8:20am 6 8 mph 1021.7mb 78f
8:10am 7 9 mph 1021.7mb 77f
8:00am 6 8 mph 1022mb 75f
7:50am 7 11 mph 1022mb 75f
7:40am 9 11 mph 1022mb 76f
7:30am 8 10 mph 1021.7mb 75f
7:20am 7 9 mph 1021.7mb 74f
7:10am 9 10 mph 1021.3mb 73f
7:00am 8 10 mph 1021.3mb 73f
6:50am 9 11 mph 1021.3mb 73f
6:40am 9 13 mph 1021.3mb 72f
6:30am 10 13 mph 1021.3mb 72f
6:20am 9 11 mph 1021.3mb 71f
6:10am 8 10 mph 1021.3mb 70f
6:00am 6 9 mph 1021.3mb 70f
5:50am 7 10 mph 1021mb 70f
5:40am 6 7 mph 1021mb 70f
5:30am 6 7 mph 1021mb 70f
5:20am 5 6 mph 1020.7mb 70f
5:10am 3 7 mph 1020.7mb 70f
5:00am 6 8 mph 1020.7mb 70f
4:50am 5 8 mph 1020.7mb 70f
4:40am 6 8 mph 1020.7mb 70f
4:30am 5 8 mph 1020.7mb 70f
4:20am 5 7 mph 1020.3mb 70f
4:10am 5 6 mph 1020.3mb 70f
4:00am 3 6 mph 1020.3mb 70f
3:50am 5 8 mph 1020.3mb 70f
3:40am 6 7 mph 1020.3mb 71f
3:30am 5 7 mph 1020mb 71f
3:20am 5 7 mph 1020mb 71f
3:10am 5 6 mph 1020mb 71f
3:00am 5 6 mph 1019.6mb 71f
2:50am 5 7 mph 1019.6mb 71f
2:40am 7 8 mph 1019.6mb 71f
2:30am 6 7 mph 1019.6mb 70f
2:20am 6 7 mph 1019.6mb 70f
2:10am 7 8 mph 1019.6mb 70f
2:00am 7 9 mph 1019.6mb 70f
1:50am 5 7 mph 1019.6mb 70f
1:40am 6 9 mph 1019.6mb 70f
1:30am 7 9 mph 1019.3mb 70f
1:20am 8 10 mph 1019.3mb 70f
1:10am 6 8 mph 1019.3mb 70f
1:00am 7 9 mph 1019.3mb 70f
12:50am 7 10 mph 1019.3mb 70f
12:40am 9 10 mph 1019.3mb 70f
12:30am 8 11 mph 1019.3mb 70f
12:20am 9 11 mph 1019.3mb 70f
12:10am 9 10 mph 1019.3mb 70f
12:00am 7 10 mph 1019.3mb 70f
Sat 08/27 11:50pm 8 10 mph 1019.3mb 70f
11:40pm 6 9 mph 1019.3mb 70f
11:30pm 5 8 mph 1019mb 70f
11:20pm 6 8 mph 1019mb 70f
11:10pm 6 7 mph 1019.3mb 70f
11:00pm 3 7 mph 1019.3mb 71f
10:50pm 3 5 mph 1019.3mb 71f
10:40pm 2 8 mph 1019.6mb 71f
10:30pm 5 8 mph 1019.6mb 71f
10:20pm 6 9 mph 1019.3mb 71f
10:10pm 7 8 mph 1019.3mb 71f
10:00pm 5 8 mph 1019.3mb 71f
9:50pm 6 7 mph 1019.3mb 71f
9:40pm 3 6 mph 1019.3mb 71f
9:30pm 3 6 mph 1019.6mb 71f
9:20pm 3 5 mph 1019.6mb 71f
9:10pm 2 3 mph 1020mb 71f
9:00pm 1 3 mph 1020mb 71f
8:50pm 2 3 mph 1020mb 71f
8:40pm 3 8 mph 1020mb 72f
8:30pm 6 8 mph 1019.6mb 72f
8:20pm 6 7 mph 1019.6mb 72f
8:10pm 6 7 mph 1019.6mb 72f
8:00pm 3 5 mph 1019.3mb 72f
7:50pm 3 8 mph 1019.6mb 73f
7:40pm 8 11 mph 1019mb 73f
7:30pm 5 6 mph 1019.3mb 73f
7:20pm 6 9 mph 1019.3mb 73f
7:10pm 7 10 mph 1019.3mb 73f
7:00pm 8 11 mph 1019mb 73f
6:50pm 10 14 mph 1019mb 73f
6:40pm 11 13 mph 1018.6mb 73f
6:30pm 10 13 mph 1019mb 73f
6:20pm 8 11 mph 1019.3mb 73f
6:10pm 9 10 mph 1019.3mb 73f
6:00pm 9 10 mph 1019.3mb 73f
5:50pm 5 7 mph 1019.3mb 74f
5:40pm 3 5 mph 1020mb 74f
5:30pm 3 6 mph 1019.6mb 74f
5:20pm 1 6 mph 1020mb 73f
5:10pm 2 8 mph 1019.6mb -
5:00pm 6 8 mph 1019.6mb -
4:50pm 6 10 mph 1019.3mb -
4:40pm 8 11 mph 1019.3mb -
4:30pm 11 16 mph 1019.3mb -
4:20pm 15 18 mph 1019mb -
4:10pm 13 18 mph 1019.3mb -
4:00pm 15 21 mph 1019.3mb -
3:50pm 16 28 mph 1019mb -
3:40pm 21 29 mph 1019.3mb -
3:30pm 26 37 mph 1019.6mb -
3:20pm 10 21 mph 1019.3mb 89f
3:10pm 10 13 mph 1018.3mb 90f
3:00pm 8 14 mph 1018.3mb 89f
2:50pm 6 13 mph 1018.3mb 89f
2:40pm 9 11 mph 1018.3mb 89f
2:30pm 7 13 mph 1018.3mb 90f
2:20pm 9 17 mph 1018.3mb 89f
2:10pm 7 14 mph 1018.3mb 89f
2:00pm 9 15 mph 1018.3mb 90f
1:50pm 9 15 mph 1018.3mb 89f
1:40pm 10 18 mph 1018.3mb 89f
1:30pm 9 15 mph 1018.3mb 89f
1:20pm 13 18 mph 1018.3mb 89f
1:10pm 13 16 mph 1018.3mb 89f
1:00pm 11 14 mph 1018.3mb 89f
12:50pm 11 16 mph 1018.6mb 88f
12:40pm 8 15 mph 1018.6mb 87f
12:30pm 13 20 mph 1018.6mb 86f
12:20pm 11 14 mph 1018.6mb 87f
12:10pm 13 16 mph 1019mb 87f
12:00pm 10 14 mph 1019.3mb 87f
11:50am 7 9 mph 1019.3mb 87f
11:40am 6 10 mph 1019.6mb 87f
11:30am 7 11 mph 1019.6mb 87f
11:20am 7 11 mph 1019.6mb 86f
11:10am 6 9 mph 1020mb 86f
11:00am 5 11 mph 1019.6mb 84f
10:50am 9 13 mph 1020mb 84f
10:40am 8 11 mph 1020mb 84f
10:30am 6 10 mph 1020mb 84f
10:20am 5 9 mph 1020.3mb 82f
10:10am 8 10 mph 1020.3mb 82f
10:00am 7 10 mph 1020.3mb 82f
9:50am 7 10 mph 1020.3mb 81f
9:40am 7 11 mph 1020.3mb 80f
9:30am 8 10 mph 1020.3mb 80f
9:20am 6 13 mph 1020.3mb 79f
9:10am 8 11 mph 1020.3mb 79f
9:00am 5 10 mph 1020.3mb 79f
8:50am 3 8 mph 1020.3mb 78f
8:40am 7 11 mph 1020.3mb 77f
8:30am 9 11 mph 1020mb 76f
8:20am 10 13 mph 1020mb 76f
8:10am 9 11 mph 1020mb 76f
8:00am 6 8 mph 1020mb 75f
7:50am 6 8 mph 1020mb 75f
7:40am 8 13 mph 1020mb 74f
7:30am 8 9 mph 1020mb 74f
7:20am 8 11 mph 1020.3mb 74f
7:10am 8 10 mph 1020.3mb 74f
7:00am 7 10 mph 1020.3mb 73f
6:50am 7 9 mph 1020mb 73f
6:40am 7 9 mph 1020mb 72f
6:30am 6 7 mph 1020.3mb 72f
6:20am 3 6 mph 1020.3mb 71f
6:10am 3 7 mph 1020mb 71f
6:00am 5 7 mph 1020mb 71f
5:50am 2 8 mph 1020mb 71f
5:40am 6 7 mph 1020mb 71f
5:30am 5 8 mph 1020mb 72f
5:20am 7 8 mph 1020mb 72f
5:10am 3 6 mph 1020mb 71f
5:00am 5 7 mph 1020mb 70f
4:50am 3 7 mph 1020mb 70f
4:40am 2 3 mph 1020mb 70f
4:30am 2 5 mph 1020mb 70f
4:20am 3 5 mph 1020mb 70f
4:10am 2 3 mph 1020mb 71f
4:00am 1 3 mph 1020mb 71f
3:50am 1 2 mph 1020.3mb 71f
3:40am 2 5 mph 1020mb 71f
3:30am  -  5 mph 1020mb 71f
3:20am 2 5 mph 1020mb 71f
3:10am  -  2 mph 1020mb 70f
3:00am 1 5 mph 1020mb 69f
2:50am 3
mph
1020mb 69f
2:40am 3
mph
1020.3mb 69f
2:30am 2 3 mph 1020.3mb 70f
2:20am 2 3 mph 1020mb 70f
2:10am 2
mph
1020mb 71f
2:00am 1 3 mph 1020.3mb 70f
1:50am 1 2 mph 1020mb 71f
1:40am 2 3 mph 1020mb 70f
1:30am 1 5 mph 1020mb 71f
1:20am 2 5 mph 1020mb 70f
1:10am 3 5 mph 1020mb 71f
1:00am 3 7 mph 1020mb 71f
12:50am 3 6 mph 1020mb 71f
12:40am 5
mph
1020mb 71f
12:30am 3 5 mph 1020mb 71f
12:20am 3
mph
1020mb 72f
12:10am 2 3 mph 1020mb 71f
12:00am 2 3 mph 1020mb 72f
Fri 08/26 11:50pm 3 5 mph 1020mb 72f
11:40pm 3
mph
1020mb 72f
11:30pm 2 3 mph 1020mb 72f
11:20pm 2 3 mph 1020mb 72f
11:10pm 2 3 mph 1020mb 72f
11:00pm 2 3 mph 1020mb 72f
10:50pm 3 5 mph 1020.3mb 72f
10:40pm 3 5 mph 1020.3mb 72f
10:30pm 2 5 mph 1020.7mb 73f
10:20pm 3 5 mph 1020.7mb 73f
10:10pm 3
mph
1020.7mb 73f
10:00pm 2 3 mph 1020.7mb 73f
9:50pm 2
mph
1020.3mb 73f
9:40pm 2
mph
1020.3mb 73f
9:30pm  -  1 mph 1020.3mb 73f
9:20pm  -  2 mph 1020.3mb 73f
9:10pm  -  3 mph 1020.7mb 74f
9:00pm 2 3 mph 1020.7mb 74f
8:50pm 2 3 mph 1020.3mb 75f
8:40pm 2 3 mph 1020.3mb 75f
8:30pm 3 6 mph 1020.3mb 76f
8:20pm 6 8 mph 1020mb 77f
8:10pm 7 8 mph 1019.6mb 78f
8:00pm 7 8 mph 1019.6mb 78f
7:50pm 7
mph
1019.6mb 78f
7:40pm 6 7 mph 1019.6mb 78f
7:30pm 7 8 mph 1019.6mb 78f
7:20pm 6 8 mph 1019.6mb 78f
7:10pm 7 8 mph 1019.3mb 78f
7:00pm 7 8 mph 1019.3mb 78f
6:50pm 7
mph
1019.3mb 78f
6:40pm 7 8 mph 1019.3mb 78f
6:30pm 8 9 mph 1019.3mb 78f
6:20pm 8 10 mph 1019.3mb 78f
6:10pm 9 10 mph 1019.3mb 78f
6:00pm 9 13 mph 1019.3mb 78f
5:50pm 11 13 mph 1019.3mb 78f
5:40pm 11 13 mph 1019.3mb 78f
5:30pm 10 11 mph 1019.3mb 78f
5:20pm 7 9 mph 1019.3mb 78f
5:10pm 8 9 mph 1019.6mb 78f
5:00pm 8 10 mph 1019.6mb 78f
4:50pm 9
mph
1019.3mb 78f
4:40pm 7 8 mph 1019.3mb 78f
4:30pm 7 8 mph 1019.3mb 78f
4:20pm 8 9 mph 1019.3mb 78f
4:10pm 7 8 mph 1019.3mb 78f
4:00pm 8 9 mph 1019.3mb 77f
3:50pm 8 9 mph 1019.6mb 77f
3:40pm 8 9 mph 1019.6mb 77f
3:30pm 8 9 mph 1019.6mb 77f
3:20pm 7 8 mph 1019.6mb 77f
3:10pm 7 8 mph 1020mb 77f
3:00pm 6 8 mph 1020mb 77f
2:50pm 7 8 mph 1020.3mb 77f
2:40pm 7 8 mph 1020mb 77f
2:30pm 6 7 mph 1020.3mb 77f
2:20pm 6 7 mph 1020.3mb 76f
2:10pm 7 8 mph 1020.3mb 76f
2:00pm 6 7 mph 1020.3mb 76f
1:50pm 5 6 mph 1020.7mb 76f
1:40pm 5 6 mph 1020.7mb 77f
1:30pm 5
mph
1021mb 77f
1:20pm 5 6 mph 1020.7mb 77f
1:10pm 3 6 mph 1020.7mb 76f
1:00pm 5 6 mph 1020.7mb 76f
12:50pm 3 6 mph 1020.7mb 76f
12:40pm 5 7 mph 1020.7mb 76f
12:30pm 5 6 mph 1020.7mb 76f
12:20pm 6 7 mph 1020.7mb 76f
12:10pm 5 7 mph 1020.7mb 76f
12:00pm 6 7 mph 1020.7mb 76f
11:50am 6 7 mph 1021mb 76f
11:40am 6
mph
1021mb 76f
11:30am 2 6 mph 1021mb 76f
11:20am 2 5 mph 1020.7mb 76f
11:10am 5 7 mph 1020.7mb 75f
11:00am 5 6 mph 1021mb 76f
10:50am 2 5 mph 1021mb 76f
10:40am 3 6 mph 1021mb 76f
10:30am 3 6 mph 1021mb 76f
10:20am 5 6 mph 1020.7mb 76f
10:10am 5 7 mph 1021mb 76f
10:00am 3 6 mph 1020.7mb 76f
9:50am 3 6 mph 1020.7mb 76f
9:40am 5 6 mph 1020.7mb 76f
9:30am 5 7 mph 1020.7mb 76f
9:20am 6 8 mph 1020.7mb 76f
9:10am 5 7 mph 1021mb 76f
9:00am 5 6 mph 1020.7mb 75f
8:50am 5 6 mph 1020.7mb 76f
8:40am 3 6 mph 1020.7mb 75f
8:30am 3 6 mph 1020.7mb 76f
8:20am 3 5 mph 1020.3mb 76f
8:10am 5 6 mph 1020mb 76f
8:00am 5 6 mph 1020mb 76f
7:50am 5 8 mph 1020mb 76f
7:40am 6 8 mph 1019.6mb 76f
7:30am 5 8 mph 1019.6mb 76f
7:20am 6 9 mph 1019.6mb 75f
7:10am 5 7 mph 1019.3mb 75f
7:00am 2 6 mph 1019.3mb 73f
6:50am 5
mph
1019.3mb 74f
6:40am 3 7 mph 1019.3mb 74f
6:30am 6 8 mph 1019mb 74f
6:20am 5 8 mph 1019mb 74f
6:10am 6 7 mph 1019mb 73f
6:00am 3 8 mph 1019mb 73f
5:50am 7 11 mph 1019mb 73f
5:40am 8 11 mph 1018.6mb 73f
5:30am 7 11 mph 1018.6mb 73f
5:20am 8 11 mph 1018.6mb 73f
5:10am 8 11 mph 1018.6mb 73f
5:00am 9 13 mph 1018.3mb 73f
4:50am 10 15 mph 1018.3mb 74f
4:40am 10 15 mph 1018.3mb 74f
4:30am 11 15 mph 1018.3mb 74f
4:20am 11 14 mph 1018.3mb 74f
4:10am 9 14 mph 1018.3mb 74f
4:00am 11 15 mph 1017.9mb 74f
3:50am 13 15 mph 1017.9mb 75f
3:40am 5 10 mph 1017.9mb 74f
3:30am 5 6 mph 1017.9mb 73f
3:20am 5 7 mph 1017.9mb 73f
3:10am 7 8 mph 1017.9mb 73f
3:00am 6 7 mph 1017.9mb 73f
2:50am 5 7 mph 1017.9mb 74f
2:40am 6 7 mph 1017.9mb 74f
2:30am 3 6 mph 1017.6mb 74f
2:20am 6 13 mph 1017.6mb 76f
2:10am 7 11 mph 1017.6mb 74f
2:00am 1 3 mph 1017.3mb 74f
1:50am 2 6 mph 1017.3mb 74f
1:40am 5 6 mph 1017.3mb 74f
1:30am 3 5 mph 1017.3mb 74f
1:20am 3 5 mph 1017.3mb 74f
1:10am 3 5 mph 1017.3mb 74f
1:00am 3 6 mph 1016.9mb 75f
12:50am 6 7 mph 1016.9mb 75f
12:40am 5 8 mph 1016.9mb 75f
12:30am 5 8 mph 1016.9mb 76f
12:20am 6 7 mph 1016.9mb 76f
12:10am 6 8 mph 1016.9mb 76f
12:00am 6 8 mph 1016.6mb 76f
Thu 08/25 11:50pm 6 8 mph 1016.6mb 76f
11:40pm 5 8 mph 1016.6mb 76f
11:30pm 5 8 mph 1016.6mb 77f
11:20pm 6 10 mph 1016.3mb 77f
11:10pm 7 10 mph 1016.3mb 77f
11:00pm 7 10 mph 1016.3mb 77f
10:50pm 6 13 mph 1016.3mb 77f
10:40pm 7 11 mph 1016.3mb 77f
10:30pm 8 11 mph 1016.3mb 77f
10:20pm 8 10 mph 1016.3mb 77f
10:10pm 8 10 mph 1016.3mb 78f
10:00pm 8 10 mph 1016.3mb 78f
9:50pm 7 8 mph 1016.3mb 78f
9:40pm 6 7 mph 1015.9mb 78f
9:30pm 6 8 mph 1016.3mb 79f
9:20pm 7 9 mph 1015.9mb 79f
9:10pm 8 9 mph 1015.9mb 80f
9:00pm 7 10 mph 1015.9mb 80f
8:50pm 6 10 mph 1015.9mb 80f
8:40pm 7 10 mph 1015.9mb 80f
8:30pm 6 9 mph 1015.9mb 80f
8:20pm 6 8 mph 1015.9mb 81f
8:10pm 7 9 mph 1015.6mb 81f